Time;durP1;ratioP1;P1;durP2;ratioP2;P2;SDS_P1;SDS_P2;PMS_P1;PMS_P2;Temp;Humidity;BMP_temperature;BMP_pressure;BME280_temperature;BME280_humidity;BME280_pressure;Samples;Min_cycle;Max_cycle;Signal;HPM_P1;HPM_P2
2022/09/09 00:00:46;;;;;;;;;1.00;1.00;;;;;;;;4989005;28;46317;-76
2022/09/09 00:03:19;;;;;;;;;1.67;1.00;;;;;;;;4994673;28;45274;-76
2022/09/09 00:05:44;;;;;;;;;1.00;1.00;;;;;;;;4990885;28;45378;-74
2022/09/09 00:08:14;;;;;;;;;2.00;2.00;;;;;;;;4997723;28;45369;-76
2022/09/09 00:10:41;;;;;;;;;3.33;2.00;;;;;;;;4986031;28;46028;-75
2022/09/09 00:13:15;;;;;;;;;2.00;2.00;;;;;;;;4998672;27;45475;-76
2022/09/09 00:15:44;;;;;;;;;1.67;1.00;;;;;;;;4992982;28;45453;-76
2022/09/09 00:18:22;;;;;;;;;2.33;1.00;;;;;;;;4988140;27;45296;-76
2022/09/09 00:20:50;;;;;;;;;1.00;1.00;;;;;;;;4992306;28;47436;-76
2022/09/09 00:23:29;;;;;;;;;2.67;1.00;;;;;;;;4998923;27;45339;-75
2022/09/09 00:26:13;;;;;;;;;1.00;1.00;;;;;;;;4995693;28;47421;-76
2022/09/09 00:28:41;;;;;;;;;1.00;1.00;;;;;;;;4993387;28;45441;-76
2022/09/09 00:31:12;;;;;;;;;2.00;1.00;;;;;;;;4991980;28;46142;-76
2022/09/09 00:33:38;;;;;;;;;4.00;1.00;;;;;;;;4999263;27;45412;-76
2022/09/09 00:36:09;;;;;;;;;2.00;1.33;;;;;;;;5003509;27;45459;-76
2022/09/09 00:38:36;;;;;;;;;5.00;2.00;;;;;;;;4997418;28;45655;-76
2022/09/09 00:41:21;;;;;;;;;1.00;1.00;;;;;;;;4995952;28;46967;-76
2022/09/09 00:43:54;;;;;;;;;4.00;1.00;;;;;;;;4997429;27;45532;-75
2022/09/09 00:46:25;;;;;;;;;2.00;2.00;;;;;;;;4992548;28;45642;-76
2022/09/09 00:48:51;;;;;;;;;1.00;1.00;;;;;;;;4997256;28;45367;-75
2022/09/09 00:51:30;;;;;;;;;5.33;1.00;;;;;;;;4993114;27;46576;-76
2022/09/09 00:54:01;;;;;;;;;4.33;1.33;;;;;;;;4997459;28;45294;-76
2022/09/09 00:56:30;;;;;;;;;4.33;2.00;;;;;;;;4985064;28;45410;-76
2022/09/09 00:59:05;;;;;;;;;4.33;1.00;;;;;;;;4997589;28;45459;-76
2022/09/09 01:01:30;;;;;;;;;5.00;3.00;;;;;;;;4995457;27;46560;-75
2022/09/09 01:03:59;;;;;;;;;2.67;2.00;;;;;;;;4997412;28;45287;-76
2022/09/09 01:06:36;;;;;;;;;1.00;1.00;;;;;;;;4992863;28;45321;-76
2022/09/09 01:09:20;;;;;;;;;3.67;2.00;;;;;;;;4997500;28;45264;-75
2022/09/09 01:11:55;;;;;;;;;3.00;1.00;;;;;;;;4996762;27;47834;-76
2022/09/09 01:14:30;;;;;;;;;4.00;2.00;;;;;;;;4997878;28;45247;-76
2022/09/09 01:16:57;;;;;;;;;3.00;2.00;;;;;;;;4985848;28;45344;-76
2022/09/09 01:19:39;;;;;;;;;4.67;2.00;;;;;;;;4979575;28;45271;-76
2022/09/09 01:22:11;;;;;;;;;4.33;2.00;;;;;;;;4989507;28;47245;-76
2022/09/09 01:25:02;;;;;;;;;4.67;3.00;;;;;;;;4978540;28;45440;-76
2022/09/09 01:27:28;;;;;;;;;3.00;2.00;;;;;;;;4994007;28;45305;-76
2022/09/09 01:29:53;;;;;;;;;3.00;2.00;;;;;;;;4993204;28;45581;-76
2022/09/09 01:32:37;;;;;;;;;4.00;2.00;;;;;;;;4994930;28;45720;-76
2022/09/09 01:35:03;;;;;;;;;4.00;4.00;;;;;;;;5004809;27;45494;-76
2022/09/09 01:37:28;;;;;;;;;2.00;2.00;;;;;;;;4995252;28;45374;-76
2022/09/09 01:39:53;;;;;;;;;3.67;2.33;;;;;;;;4992848;27;45435;-76
2022/09/09 01:42:19;;;;;;;;;4.33;3.00;;;;;;;;4995069;28;46581;-76
2022/09/09 01:44:44;;;;;;;;;3.00;2.00;;;;;;;;4996079;27;45593;-76
2022/09/09 01:47:09;;;;;;;;;2.00;1.00;;;;;;;;4994077;28;45457;-76
2022/09/09 01:49:34;;;;;;;;;3.00;2.00;;;;;;;;4995544;28;45439;-76
2022/09/09 01:52:00;;;;;;;;;5.33;3.00;;;;;;;;4993651;28;46881;-76
2022/09/09 01:54:27;;;;;;;;;4.00;2.33;;;;;;;;4996311;28;45432;-77
2022/09/09 01:56:55;;;;;;;;;3.00;3.00;;;;;;;;4984465;28;45489;-76
2022/09/09 01:59:20;;;;;;;;;4.00;2.00;;;;;;;;4994770;28;45330;-76
2022/09/09 02:01:52;;;;;;;;;4.67;2.67;;;;;;;;4988931;27;46188;-75
2022/09/09 02:04:29;;;;;;;;;5.00;3.00;;;;;;;;4996863;27;45365;-75
2022/09/09 02:06:56;;;;;;;;;3.00;2.00;;;;;;;;4992615;27;46249;-75
2022/09/09 02:09:23;;;;;;;;;4.00;2.00;;;;;;;;4995297;27;45821;-75
2022/09/09 02:11:53;;;;;;;;;2.00;2.00;;;;;;;;4985272;27;46344;-75
2022/09/09 02:14:23;;;;;;;;;2.67;2.00;;;;;;;;4977453;28;45492;-75
2022/09/09 02:16:54;;;;;;;;;6.00;2.00;;;;;;;;4989382;27;45336;-75
2022/09/09 02:19:25;;;;;;;;;2.33;2.33;;;;;;;;4994529;28;45507;-75
2022/09/09 02:21:51;;;;;;;;;2.00;2.00;;;;;;;;4991936;28;45306;-75
2022/09/09 02:24:17;;;;;;;;;2.00;2.00;;;;;;;;4997094;27;45337;-75
2022/09/09 02:26:43;;;;;;;;;2.67;1.00;;;;;;;;4990101;28;45295;-76
2022/09/09 02:29:12;;;;;;;;;1.67;1.67;;;;;;;;4996422;28;45531;-76
2022/09/09 02:31:38;;;;;;;;;5.67;2.00;;;;;;;;4990229;28;45476;-75
2022/09/09 02:34:05;;;;;;;;;6.00;2.00;;;;;;;;4996861;28;45290;-75
2022/09/09 02:36:33;;;;;;;;;2.67;2.67;;;;;;;;4991233;28;45497;-75
2022/09/09 02:38:58;;;;;;;;;6.00;3.33;;;;;;;;4996628;27;45392;-76
2022/09/09 02:41:25;;;;;;;;;1.00;1.00;;;;;;;;4989359;28;45422;-76
2022/09/09 02:43:51;;;;;;;;;2.67;2.67;;;;;;;;4996110;28;45236;-75
2022/09/09 02:46:26;;;;;;;;;1.67;1.67;;;;;;;;4991708;28;45415;-75
2022/09/09 02:48:58;;;;;;;;;5.00;3.00;;;;;;;;4996128;28;45380;-76
2022/09/09 02:51:32;;;;;;;;;3.67;3.00;;;;;;;;4982577;28;45519;-76
2022/09/09 02:54:10;;;;;;;;;3.67;2.00;;;;;;;;4984074;27;45265;-75
2022/09/09 02:56:39;;;;;;;;;1.67;1.67;;;;;;;;4991027;28;45326;-75
2022/09/09 02:59:05;;;;;;;;;2.00;2.00;;;;;;;;4996638;28;45362;-75
2022/09/09 03:01:30;;;;;;;;;5.67;3.00;;;;;;;;4990990;27;46076;-75
2022/09/09 03:03:55;;;;;;;;;5.67;2.00;;;;;;;;4996041;28;45365;-76
2022/09/09 03:06:21;;;;;;;;;2.00;2.00;;;;;;;;4991149;28;45310;-75
2022/09/09 03:08:46;;;;;;;;;4.00;2.33;;;;;;;;4995229;28;47045;-75
2022/09/09 03:11:13;;;;;;;;;8.33;4.00;;;;;;;;4987466;27;45656;-75
2022/09/09 03:13:38;;;;;;;;;2.33;2.33;;;;;;;;4980895;28;45399;-74
2022/09/09 03:16:03;;;;;;;;;5.00;2.00;;;;;;;;4985512;27;46821;-74
2022/09/09 03:18:29;;;;;;;;;4.00;3.00;;;;;;;;4995596;28;45303;-75
2022/09/09 03:20:54;;;;;;;;;7.33;2.33;;;;;;;;4991538;28;45370;-75
2022/09/09 03:23:21;;;;;;;;;3.00;2.67;;;;;;;;4995492;28;45269;-75
2022/09/09 03:25:48;;;;;;;;;5.00;2.33;;;;;;;;4992718;28;45570;-75
2022/09/09 03:28:13;;;;;;;;;3.00;3.00;;;;;;;;4995284;28;45190;-75
2022/09/09 03:30:38;;;;;;;;;5.67;4.00;;;;;;;;4990445;27;45975;-75
2022/09/09 03:33:03;;;;;;;;;5.33;2.00;;;;;;;;4995170;28;45397;-74
2022/09/09 03:35:29;;;;;;;;;3.00;2.00;;;;;;;;4991677;27;45394;-75
2022/09/09 03:37:55;;;;;;;;;3.00;2.00;;;;;;;;4993825;28;45452;-74
2022/09/09 03:40:20;;;;;;;;;6.00;3.00;;;;;;;;4992733;28;45508;-75
2022/09/09 03:42:46;;;;;;;;;5.33;4.00;;;;;;;;4996659;27;45545;-74
2022/09/09 03:45:11;;;;;;;;;3.00;3.00;;;;;;;;4994686;28;45874;-74
2022/09/09 03:47:36;;;;;;;;;4.00;2.00;;;;;;;;4997059;28;45439;-75
2022/09/09 03:50:03;;;;;;;;;6.00;4.00;;;;;;;;4994575;28;46092;-74
2022/09/09 03:52:29;;;;;;;;;4.00;2.33;;;;;;;;4989165;28;45491;-74
2022/09/09 03:54:55;;;;;;;;;3.00;3.00;;;;;;;;4994878;28;45845;-75
2022/09/09 03:57:21;;;;;;;;;4.00;2.00;;;;;;;;4988792;28;45340;-73
2022/09/09 03:59:46;;;;;;;;;4.67;3.00;;;;;;;;4995530;28;46199;-74
2022/09/09 04:02:12;;;;;;;;;3.00;3.00;;;;;;;;4992971;28;45241;-74
2022/09/09 04:04:37;;;;;;;;;2.67;2.00;;;;;;;;4996710;27;45302;-75
2022/09/09 04:07:02;;;;;;;;;3.33;3.33;;;;;;;;4993423;28;45290;-76
2022/09/09 04:09:27;;;;;;;;;3.00;2.00;;;;;;;;4997251;27;45274;-77
2022/09/09 04:11:53;;;;;;;;;2.00;2.00;;;;;;;;4990076;28;45442;-75
2022/09/09 04:14:18;;;;;;;;;5.67;2.00;;;;;;;;4979820;28;45400;-74
2022/09/09 04:16:44;;;;;;;;;4.33;2.33;;;;;;;;4989149;27;45505;-74
2022/09/09 04:19:10;;;;;;;;;5.67;3.67;;;;;;;;4980559;28;45502;-76
2022/09/09 04:21:35;;;;;;;;;4.67;4.00;;;;;;;;4991215;28;45414;-76
2022/09/09 04:24:01;;;;;;;;;2.33;1.67;;;;;;;;4978970;28;45378;-74
2022/09/09 04:26:26;;;;;;;;;4.00;4.00;;;;;;;;4986684;28;45219;-73
2022/09/09 04:28:51;;;;;;;;;5.67;3.00;;;;;;;;4996556;27;46812;-73
2022/09/09 04:31:18;;;;;;;;;3.67;2.33;;;;;;;;4990403;28;45275;-73
2022/09/09 04:33:43;;;;;;;;;3.00;3.00;;;;;;;;4997746;27;45414;-76
2022/09/09 04:36:09;;;;;;;;;3.33;2.00;;;;;;;;4990398;28;46296;-74
2022/09/09 04:38:34;;;;;;;;;7.67;4.33;;;;;;;;4998086;27;46480;-74
2022/09/09 04:40:59;;;;;;;;;5.00;3.00;;;;;;;;4990113;27;45224;-74
2022/09/09 04:43:27;;;;;;;;;3.67;2.33;;;;;;;;4997519;28;45650;-74
2022/09/09 04:45:53;;;;;;;;;3.33;2.67;;;;;;;;4995048;28;47043;-74
2022/09/09 04:48:19;;;;;;;;;4.33;2.67;;;;;;;;4996927;28;45296;-74
2022/09/09 04:50:52;;;;;;;;;3.00;3.00;;;;;;;;4991371;27;45415;-73
2022/09/09 04:53:18;;;;;;;;;3.33;3.33;;;;;;;;4990803;28;45376;-75
2022/09/09 04:55:43;;;;;;;;;6.00;4.33;;;;;;;;4988825;27;45335;-74
2022/09/09 04:58:08;;;;;;;;;5.00;3.00;;;;;;;;4990416;28;46279;-74
2022/09/09 05:00:36;;;;;;;;;4.67;3.00;;;;;;;;4996217;27;45239;-74
2022/09/09 05:03:03;;;;;;;;;2.33;2.33;;;;;;;;4995083;28;45321;-75
2022/09/09 05:05:28;;;;;;;;;3.33;2.00;;;;;;;;4993459;28;45544;-75
2022/09/09 05:07:53;;;;;;;;;6.33;4.00;;;;;;;;4997165;27;46354;-76
2022/09/09 05:10:18;;;;;;;;;2.00;2.00;;;;;;;;4991792;28;45195;-74
2022/09/09 05:12:51;;;;;;;;;4.00;2.00;;;;;;;;4996344;28;45370;-73
2022/09/09 05:15:16;;;;;;;;;5.67;3.00;;;;;;;;4995216;27;45413;-74
2022/09/09 05:17:42;;;;;;;;;7.67;4.67;;;;;;;;4997686;27;47009;-74
2022/09/09 05:20:07;;;;;;;;;4.67;3.00;;;;;;;;4992698;28;45441;-74
2022/09/09 05:22:33;;;;;;;;;3.00;3.00;;;;;;;;4994203;28;45849;-75
2022/09/09 05:24:58;;;;;;;;;7.67;2.00;;;;;;;;4993459;28;45438;-74
2022/09/09 05:27:24;;;;;;;;;6.00;5.00;;;;;;;;4990892;27;46028;-74
2022/09/09 05:29:49;;;;;;;;;6.00;3.67;;;;;;;;4993045;27;45439;-74
2022/09/09 05:32:17;;;;;;;;;6.67;4.00;;;;;;;;4992684;28;45425;-74
2022/09/09 05:34:42;;;;;;;;;2.67;2.67;;;;;;;;4996092;27;46202;-74
2022/09/09 05:37:08;;;;;;;;;2.00;2.00;;;;;;;;4991045;28;45310;-74
2022/09/09 05:39:33;;;;;;;;;3.00;3.00;;;;;;;;4996126;27;45259;-73
2022/09/09 05:41:58;;;;;;;;;3.67;3.00;;;;;;;;4991036;28;45406;-73
2022/09/09 05:44:27;;;;;;;;;6.00;4.00;;;;;;;;4997209;27;45209;-74
2022/09/09 05:46:54;;;;;;;;;3.33;2.00;;;;;;;;4990675;28;45350;-73
2022/09/09 05:49:19;;;;;;;;;1.00;1.00;;;;;;;;4997068;27;46259;-73
2022/09/09 05:51:44;;;;;;;;;4.00;2.00;;;;;;;;4982296;28;45360;-76
2022/09/09 05:54:09;;;;;;;;;5.00;3.00;;;;;;;;4997251;27;46092;-73
2022/09/09 05:56:35;;;;;;;;;4.67;3.67;;;;;;;;4982056;28;45200;-73
2022/09/09 05:59:00;;;;;;;;;6.67;3.00;;;;;;;;4996943;28;45414;-73
2022/09/09 06:01:27;;;;;;;;;4.67;3.00;;;;;;;;4991015;28;45441;-73
2022/09/09 06:03:52;;;;;;;;;4.00;3.00;;;;;;;;4994251;28;45233;-74
2022/09/09 06:06:22;;;;;;;;;4.00;3.00;;;;;;;;4992690;28;45408;-76
2022/09/09 06:08:48;;;;;;;;;5.00;3.00;;;;;;;;4995687;28;45420;-75
2022/09/09 06:11:15;;;;;;;;;7.00;3.00;;;;;;;;4988121;27;45526;-74
2022/09/09 06:13:40;;;;;;;;;4.00;2.33;;;;;;;;4979859;28;45599;-73
2022/09/09 06:16:08;;;;;;;;;5.67;2.00;;;;;;;;4984723;27;45349;-76
2022/09/09 06:18:33;;;;;;;;;5.33;4.00;;;;;;;;4995677;28;45276;-73
2022/09/09 06:21:00;;;;;;;;;5.00;3.00;;;;;;;;4990404;28;45271;-73
2022/09/09 06:23:25;;;;;;;;;3.00;3.00;;;;;;;;4995037;28;45323;-73
2022/09/09 06:25:51;;;;;;;;;5.00;3.00;;;;;;;;4990672;28;46198;-73
2022/09/09 06:28:17;;;;;;;;;6.67;3.67;;;;;;;;4995234;27;45362;-75
2022/09/09 06:30:42;;;;;;;;;5.33;2.67;;;;;;;;4991475;27;46188;-71
2022/09/09 06:33:07;;;;;;;;;4.00;4.00;;;;;;;;4994579;27;45509;-72
2022/09/09 06:35:32;;;;;;;;;7.00;4.00;;;;;;;;5002006;27;47085;-72
2022/09/09 06:37:58;;;;;;;;;4.67;3.00;;;;;;;;4992806;28;45605;-72
2022/09/09 06:40:23;;;;;;;;;2.33;2.33;;;;;;;;4993487;27;45403;-74
2022/09/09 06:42:49;;;;;;;;;6.67;3.00;;;;;;;;4992470;28;45750;-72
2022/09/09 06:45:14;;;;;;;;;4.00;2.33;;;;;;;;4992899;28;46475;-72
2022/09/09 06:47:40;;;;;;;;;4.00;3.00;;;;;;;;4986111;27;45401;-71
2022/09/09 06:50:07;;;;;;;;;3.33;2.67;;;;;;;;4993212;28;45468;-72
2022/09/09 06:52:32;;;;;;;;;4.33;3.00;;;;;;;;4981207;28;45265;-72
2022/09/09 06:54:58;;;;;;;;;8.67;5.67;;;;;;;;4980815;27;47054;-72
2022/09/09 06:57:23;;;;;;;;;3.67;2.00;;;;;;;;4984245;27;45185;-72
2022/09/09 06:59:49;;;;;;;;;3.00;3.00;;;;;;;;4981538;27;45411;-73
2022/09/09 07:02:14;;;;;;;;;4.00;2.33;;;;;;;;4993085;28;45461;-72
2022/09/09 07:04:39;;;;;;;;;3.00;3.00;;;;;;;;4994802;27;45838;-72
2022/09/09 07:07:05;;;;;;;;;4.67;3.00;;;;;;;;4988527;28;45403;-71
2022/09/09 07:09:31;;;;;;;;;3.67;3.67;;;;;;;;4995628;28;45442;-72
2022/09/09 07:11:59;;;;;;;;;3.67;3.00;;;;;;;;4981601;28;45941;-72
2022/09/09 07:14:24;;;;;;;;;4.00;2.00;;;;;;;;4985336;28;45306;-73
2022/09/09 07:16:49;;;;;;;;;2.33;2.00;;;;;;;;4979011;28;45356;-72
2022/09/09 07:19:15;;;;;;;;;5.00;4.33;;;;;;;;4983087;27;45385;-72
2022/09/09 07:21:40;;;;;;;;;2.00;2.00;;;;;;;;4982976;28;45205;-72
2022/09/09 07:24:09;;;;;;;;;3.67;3.00;;;;;;;;4984831;28;45249;-74
2022/09/09 07:26:35;;;;;;;;;2.00;2.00;;;;;;;;4989568;28;45545;-72
2022/09/09 07:29:01;;;;;;;;;4.67;3.00;;;;;;;;4993859;28;45412;-73
2022/09/09 07:31:28;;;;;;;;;4.00;4.00;;;;;;;;4989780;28;45481;-77
2022/09/09 07:33:53;;;;;;;;;3.00;3.00;;;;;;;;5006613;27;45354;-77
2022/09/09 07:36:21;;;;;;;;;3.67;1.67;;;;;;;;4997815;27;46408;-74
2022/09/09 07:38:48;;;;;;;;;3.00;3.00;;;;;;;;4988034;28;45245;-75
2022/09/09 07:41:15;;;;;;;;;1.67;1.67;;;;;;;;4988759;27;45392;-72
2022/09/09 07:43:41;;;;;;;;;5.00;3.00;;;;;;;;4991009;28;45458;-73
2022/09/09 07:46:07;;;;;;;;;3.67;3.00;;;;;;;;4986616;28;45492;-74
2022/09/09 07:48:33;;;;;;;;;1.67;1.67;;;;;;;;4994586;28;45503;-74
2022/09/09 07:51:05;;;;;;;;;2.67;2.67;;;;;;;;4986461;28;45512;-74
2022/09/09 07:53:31;;;;;;;;;2.00;1.67;;;;;;;;4991161;28;46469;-77
2022/09/09 07:56:01;;;;;;;;;2.00;2.00;;;;;;;;4988286;28;45303;-74
2022/09/09 07:58:26;;;;;;;;;4.00;2.33;;;;;;;;4988508;28;45291;-74
2022/09/09 08:00:52;;;;;;;;;4.67;2.33;;;;;;;;4988263;27;45563;-72
2022/09/09 08:03:17;;;;;;;;;4.00;1.67;;;;;;;;4977172;27;45462;-72
2022/09/09 08:05:42;;;;;;;;;2.00;1.67;;;;;;;;4979640;28;45398;-72
2022/09/09 08:08:08;;;;;;;;;3.00;3.00;;;;;;;;4977007;28;45255;-72
2022/09/09 08:10:34;;;;;;;;;1.00;0.67;;;;;;;;4981073;28;45415;-75
2022/09/09 08:12:59;;;;;;;;;2.33;2.33;;;;;;;;4977814;28;45271;-71
2022/09/09 08:15:24;;;;;;;;;1.00;1.00;;;;;;;;4981805;27;45181;-71
2022/09/09 08:17:49;;;;;;;;;3.00;1.67;;;;;;;;4975744;27;45209;-71
2022/09/09 08:20:15;;;;;;;;;3.00;2.00;;;;;;;;4986237;27;45275;-71
2022/09/09 08:22:41;;;;;;;;;1.67;1.67;;;;;;;;4978759;28;45642;-71
2022/09/09 08:25:08;;;;;;;;;4.33;2.00;;;;;;;;4981781;28;45325;-71
2022/09/09 08:27:33;;;;;;;;;2.67;2.67;;;;;;;;4982619;27;45386;-71
2022/09/09 08:29:59;;;;;;;;;3.00;1.00;;;;;;;;4988028;27;45574;-73
2022/09/09 08:32:24;;;;;;;;;1.67;1.67;;;;;;;;4984468;27;45645;-73
2022/09/09 08:34:49;;;;;;;;;2.33;1.67;;;;;;;;5016899;27;45805;-74
2022/09/09 08:37:14;;;;;;;;;0.33;0.33;;;;;;;;4993654;28;45288;-72
2022/09/09 08:39:40;;;;;;;;;6.00;2.00;;;;;;;;4996207;27;46184;-73
2022/09/09 08:42:24;;;;;;;;;0.67;0.67;;;;;;;;4982703;28;46084;-73
2022/09/09 08:44:52;;;;;;;;;3.00;2.67;;;;;;;;4980431;28;45386;-73
2022/09/09 08:47:41;;;;;;;;;2.67;1.33;;;;;;;;4984520;28;45236;-73
2022/09/09 08:50:15;;;;;;;;;3.33;2.00;;;;;;;;4991912;28;45456;-73
2022/09/09 08:52:52;;;;;;;;;3.00;0.50;;;;;;;;4986002;28;45487;-73
2022/09/09 08:55:36;;;;;;;;;2.33;1.33;;;;;;;;4987813;27;45320;-73
2022/09/09 08:58:11;;;;;;;;;2.00;0.67;;;;;;;;4988233;27;45316;-72
2022/09/09 09:01:00;;;;;;;;;2.00;1.67;;;;;;;;4990969;28;45432;-73
2022/09/09 09:03:50;;;;;;;;;0.33;0.33;;;;;;;;4964414;28;45494;-72
2022/09/09 09:06:30;;;;;;;;;1.33;0.00;;;;;;;;4986278;27;45564;-73
2022/09/09 09:08:55;;;;;;;;;4.00;0.67;;;;;;;;4994148;27;45247;-73
2022/09/09 09:11:22;;;;;;;;;1.67;1.67;;;;;;;;4985629;27;45389;-73
2022/09/09 09:13:52;;;;;;;;;2.00;1.00;;;;;;;;4984997;27;45449;-74
2022/09/09 09:16:20;;;;;;;;;1.00;1.00;;;;;;;;4984348;27;45298;-73
2022/09/09 09:18:46;;;;;;;;;1.00;1.00;;;;;;;;4989871;27;45336;-73
2022/09/09 09:21:15;;;;;;;;;2.00;0.33;;;;;;;;4981760;28;45303;-73
2022/09/09 09:23:45;;;;;;;;;0.67;0.67;;;;;;;;4986110;27;45303;-73
2022/09/09 09:26:13;;;;;;;;;2.00;0.67;;;;;;;;4985251;27;45407;-73
2022/09/09 09:28:39;;;;;;;;;1.33;0.00;;;;;;;;4991503;27;45502;-73
2022/09/09 09:31:04;;;;;;;;;2.00;2.00;;;;;;;;4981375;28;45315;-73
2022/09/09 09:33:49;;;;;;;;;2.00;2.00;;;;;;;;4987792;28;45430;-74
2022/09/09 09:36:15;;;;;;;;;2.33;1.33;;;;;;;;4985527;27;45428;-73
2022/09/09 09:38:51;;;;;;;;;1.33;1.00;;;;;;;;4987935;27;44865;-73
2022/09/09 09:41:28;;;;;;;;;4.00;2.00;;;;;;;;4992318;27;45461;-72
2022/09/09 09:43:54;;;;;;;;;2.67;0.67;;;;;;;;4989043;27;47256;-74
2022/09/09 09:46:23;;;;;;;;;1.67;1.33;;;;;;;;4984821;28;45418;-76
2022/09/09 09:49:01;;;;;;;;;2.00;2.00;;;;;;;;4989978;28;45347;-75
2022/09/09 09:51:28;;;;;;;;;1.00;1.00;;;;;;;;4985259;28;45276;-75
2022/09/09 09:53:53;;;;;;;;;2.00;1.33;;;;;;;;4978453;27;46448;-76
2022/09/09 09:56:26;;;;;;;;;5.33;0.00;;;;;;;;4981140;28;45439;-76
2022/09/09 09:58:53;;;;;;;;;1.00;1.00;;;;;;;;4982749;27;45339;-76
2022/09/09 10:01:38;;;;;;;;;1.67;1.00;;;;;;;;4986297;27;45481;-75
2022/09/09 10:04:18;;;;;;;;;0.00;0.00;;;;;;;;4996073;28;45385;-75
2022/09/09 10:06:44;;;;;;;;;3.00;1.67;;;;;;;;4979643;27;45517;-72
2022/09/09 10:09:21;;;;;;;;;2.33;1.33;;;;;;;;4985341;28;45220;-72
2022/09/09 10:12:25;;;;;;;;;4.33;1.67;;;;;;;;4988617;27;45540;-72
2022/09/09 10:15:06;;;;;;;;;1.33;1.33;;;;;;;;4953409;28;45868;-73
2022/09/09 10:17:50;;;;;;;;;2.00;2.00;;;;;;;;4957810;28;45455;-72
2022/09/09 10:20:28;;;;;;;;;2.67;1.33;;;;;;;;4979495;27;45539;-72
2022/09/09 10:23:04;;;;;;;;;1.00;1.00;;;;;;;;4981814;27;45709;-73
2022/09/09 10:25:35;;;;;;;;;2.00;2.00;;;;;;;;4985792;27;45344;-73
2022/09/09 10:28:18;;;;;;;;;1.33;1.33;;;;;;;;4990286;27;45305;-73
2022/09/09 10:30:54;;;;;;;;;3.00;2.00;;;;;;;;4987279;28;45423;-73
2022/09/09 10:33:37;;;;;;;;;3.33;2.00;;;;;;;;4989530;27;45332;-72
2022/09/09 10:36:29;;;;;;;;;0.67;0.67;;;;;;;;4983856;27;47143;-73
2022/09/09 10:39:05;;;;;;;;;2.00;1.00;;;;;;;;4988891;28;45368;-73
2022/09/09 10:41:33;;;;;;;;;4.00;0.67;;;;;;;;4982545;27;45338;-73
2022/09/09 10:43:58;;;;;;;;;1.00;1.00;;;;;;;;4982705;28;45360;-72
2022/09/09 10:46:36;;;;;;;;;2.25;2.00;;;;;;;;4985480;27;47602;-73
2022/09/09 10:49:15;;;;;;;;;2.00;1.00;;;;;;;;4988089;28;45320;-72
2022/09/09 10:51:49;;;;;;;;;4.67;1.00;;;;;;;;4987198;27;45475;-72
2022/09/09 10:54:17;;;;;;;;;0.75;0.00;;;;;;;;4990527;28;45822;-72
2022/09/09 10:56:44;;;;;;;;;1.00;1.00;;;;;;;;4987686;27;46490;-72
2022/09/09 10:59:23;;;;;;;;;2.00;1.00;;;;;;;;4991541;28;45604;-73
2022/09/09 11:02:01;;;;;;;;;1.00;1.00;;;;;;;;4982695;28;45220;-70
2022/09/09 11:04:47;;;;;;;;;1.33;1.33;;;;;;;;4994645;28;45898;-72
2022/09/09 11:07:16;;;;;;;;;3.33;2.00;;;;;;;;4978433;28;45481;-74
2022/09/09 11:09:49;;;;;;;;;2.33;1.33;;;;;;;;4986757;27;45754;-72
2022/09/09 11:12:19;;;;;;;;;2.25;1.00;;;;;;;;4988490;27;45369;-74
2022/09/09 11:14:53;;;;;;;;;1.67;1.67;;;;;;;;4980218;28;46442;-71
2022/09/09 11:17:21;;;;;;;;;4.00;2.00;;;;;;;;4981663;28;45299;-72
2022/09/09 11:19:47;;;;;;;;;2.75;2.00;;;;;;;;4983833;28;47113;-71
2022/09/09 11:22:32;;;;;;;;;3.00;2.33;;;;;;;;4983432;27;45763;-72
2022/09/09 11:25:01;;;;;;;;;1.67;1.67;;;;;;;;4987176;28;45480;-70
2022/09/09 11:27:32;;;;;;;;;1.00;1.00;;;;;;;;4981877;28;46382;-70
2022/09/09 11:30:06;;;;;;;;;3.00;1.00;;;;;;;;4989756;28;45324;-70
2022/09/09 11:32:44;;;;;;;;;1.50;0.75;;;;;;;;4983142;28;45376;-70
2022/09/09 11:35:09;;;;;;;;;1.33;1.33;;;;;;;;5010893;27;45429;-69
2022/09/09 11:37:49;;;;;;;;;2.00;1.75;;;;;;;;4987141;28;47321;-70
2022/09/09 11:40:20;;;;;;;;;2.00;0.67;;;;;;;;4979752;28;46010;-70
2022/09/09 11:42:49;;;;;;;;;1.00;0.67;;;;;;;;4978487;28;45370;-71
2022/09/09 11:45:27;;;;;;;;;2.75;1.00;;;;;;;;4981736;28;45375;-72
2022/09/09 11:47:59;;;;;;;;;4.00;1.00;;;;;;;;4980651;27;46314;-72
2022/09/09 11:50:24;;;;;;;;;1.25;1.25;;;;;;;;4984478;28;45173;-72
2022/09/09 11:52:49;;;;;;;;;3.00;2.00;;;;;;;;4989960;27;45167;-72
2022/09/09 11:55:26;;;;;;;;;2.00;2.00;;;;;;;;4990127;27;45604;-72
2022/09/09 11:57:57;;;;;;;;;2.33;2.00;;;;;;;;4985746;28;45923;-71
2022/09/09 12:00:38;;;;;;;;;2.00;1.00;;;;;;;;4982250;28;45336;-71
2022/09/09 12:03:04;;;;;;;;;1.67;1.67;;;;;;;;4983680;27;45391;-70
2022/09/09 12:05:44;;;;;;;;;1.75;1.50;;;;;;;;4990107;27;47068;-71
2022/09/09 12:08:10;;;;;;;;;1.00;1.00;;;;;;;;4980259;28;45324;-72
2022/09/09 12:10:38;;;;;;;;;1.00;1.00;;;;;;;;4990247;27;45411;-72
2022/09/09 12:13:20;;;;;;;;;1.67;1.67;;;;;;;;4982294;28;45353;-73
2022/09/09 12:15:48;;;;;;;;;2.67;1.00;;;;;;;;4979498;27;45158;-72
2022/09/09 12:18:22;;;;;;;;;2.33;1.67;;;;;;;;4987019;28;45248;-70
2022/09/09 12:20:54;;;;;;;;;1.33;1.33;;;;;;;;4982775;27;45608;-72
2022/09/09 12:23:38;;;;;;;;;1.67;1.67;;;;;;;;4989181;27;45419;-73
2022/09/09 12:26:18;;;;;;;;;1.33;1.33;;;;;;;;4986799;28;46832;-72
2022/09/09 12:28:58;;;;;;;;;1.33;0.67;;;;;;;;4995571;27;46114;-71
2022/09/09 12:31:24;;;;;;;;;3.00;3.00;;;;;;;;4986905;27;45285;-71
2022/09/09 12:33:49;;;;;;;;;2.00;2.00;;;;;;;;5001825;27;45473;-72
2022/09/09 12:36:28;;;;;;;;;2.00;2.00;;;;;;;;5003783;27;45481;-72
2022/09/09 12:38:55;;;;;;;;;5.00;3.67;;;;;;;;4991256;27;45421;-72
2022/09/09 12:41:22;;;;;;;;;4.67;2.67;;;;;;;;4985654;27;45418;-72
2022/09/09 12:43:47;;;;;;;;;1.67;1.67;;;;;;;;4991361;27;45328;-72
2022/09/09 12:46:22;;;;;;;;;3.67;3.00;;;;;;;;4987700;28;45215;-72
2022/09/09 12:48:47;;;;;;;;;0.67;0.67;;;;;;;;4979819;27;46397;-72
2022/09/09 12:51:31;;;;;;;;;2.67;2.67;;;;;;;;4982738;27;45354;-72
2022/09/09 12:53:57;;;;;;;;;3.00;3.00;;;;;;;;4984166;27;45299;-71
2022/09/09 12:56:28;;;;;;;;;3.00;2.00;;;;;;;;4982790;27;45398;-70
2022/09/09 12:58:55;;;;;;;;;6.00;2.67;;;;;;;;4986882;28;46293;-71
2022/09/09 13:01:22;;;;;;;;;3.00;3.00;;;;;;;;4985201;27;45315;-71
2022/09/09 13:03:48;;;;;;;;;2.67;2.67;;;;;;;;4985468;28;45228;-72
2022/09/09 13:06:18;;;;;;;;;2.67;2.67;;;;;;;;4984319;27;45209;-72
2022/09/09 13:08:43;;;;;;;;;5.00;2.67;;;;;;;;4990730;28;45351;-72
2022/09/09 13:11:12;;;;;;;;;4.33;4.33;;;;;;;;4987656;27;45561;-72
2022/09/09 13:13:39;;;;;;;;;6.67;4.67;;;;;;;;4985932;28;45697;-71
2022/09/09 13:16:06;;;;;;;;;4.33;1.67;;;;;;;;4990009;28;45331;-72
2022/09/09 13:18:33;;;;;;;;;3.67;2.33;;;;;;;;4987605;28;45343;-71
2022/09/09 13:20:59;;;;;;;;;2.00;2.00;;;;;;;;4990322;27;45418;-72
2022/09/09 13:23:29;;;;;;;;;5.33;4.00;;;;;;;;4981251;27;45438;-72
2022/09/09 13:25:56;;;;;;;;;2.33;2.33;;;;;;;;4983875;28;45387;-73
2022/09/09 13:28:22;;;;;;;;;4.00;2.00;;;;;;;;4984277;27;46129;-73
2022/09/09 13:31:06;;;;;;;;;2.00;2.00;;;;;;;;4982538;28;45303;-73
2022/09/09 13:33:33;;;;;;;;;3.00;1.67;;;;;;;;4984965;27;45343;-72
2022/09/09 13:36:00;;;;;;;;;3.00;1.67;;;;;;;;5014462;27;45572;-73
2022/09/09 13:38:27;;;;;;;;;1.67;1.67;;;;;;;;4994323;27;46982;-73
2022/09/09 13:41:03;;;;;;;;;6.00;3.00;;;;;;;;4985110;27;45796;-73
2022/09/09 13:43:29;;;;;;;;;3.67;0.67;;;;;;;;4992080;28;45145;-73
2022/09/09 13:45:56;;;;;;;;;2.33;2.33;;;;;;;;4985599;27;45393;-73
2022/09/09 13:48:22;;;;;;;;;3.33;2.33;;;;;;;;4986904;27;47006;-74
2022/09/09 13:50:57;;;;;;;;;2.67;2.67;;;;;;;;4986517;27;45545;-74
2022/09/09 13:53:23;;;;;;;;;2.00;2.00;;;;;;;;4989446;27;45368;-73
2022/09/09 13:55:48;;;;;;;;;4.33;1.33;;;;;;;;4989301;27;45341;-74
2022/09/09 13:58:21;;;;;;;;;0.67;0.67;;;;;;;;4978801;27;45405;-74
2022/09/09 14:00:46;;;;;;;;;4.00;3.00;;;;;;;;4983279;28;45449;-74
2022/09/09 14:03:12;;;;;;;;;1.00;1.00;;;;;;;;4996453;27;45354;-74
2022/09/09 14:05:37;;;;;;;;;2.67;2.33;;;;;;;;4994786;27;45509;-75
2022/09/09 14:08:04;;;;;;;;;3.00;1.33;;;;;;;;4985019;27;46707;-74
2022/09/09 14:10:29;;;;;;;;;4.00;1.67;;;;;;;;4984894;28;45438;-74
2022/09/09 14:12:54;;;;;;;;;3.00;1.67;;;;;;;;4980065;27;45451;-74
2022/09/09 14:15:19;;;;;;;;;3.00;1.67;;;;;;;;4978490;27;45570;-74
2022/09/09 14:17:45;;;;;;;;;3.00;1.67;;;;;;;;4976863;28;47127;-74
2022/09/09 14:20:11;;;;;;;;;3.00;1.00;;;;;;;;4986895;27;45470;-74
2022/09/09 14:22:38;;;;;;;;;2.00;2.00;;;;;;;;4982266;27;45405;-74
2022/09/09 14:25:05;;;;;;;;;2.33;2.33;;;;;;;;4984985;28;45636;-74
2022/09/09 14:27:30;;;;;;;;;3.67;2.00;;;;;;;;4983160;27;45974;-74
2022/09/09 14:29:56;;;;;;;;;2.00;2.00;;;;;;;;4987511;27;45430;-74
2022/09/09 14:32:21;;;;;;;;;0.67;0.67;;;;;;;;4985665;28;45367;-75
2022/09/09 14:34:49;;;;;;;;;2.00;2.00;;;;;;;;4993595;27;45315;-74
2022/09/09 14:37:14;;;;;;;;;1.33;1.33;;;;;;;;4987647;27;46386;-74
2022/09/09 14:39:39;;;;;;;;;3.33;1.67;;;;;;;;4994268;28;45309;-74
2022/09/09 14:42:05;;;;;;;;;1.00;1.00;;;;;;;;4982929;27;45455;-73
2022/09/09 14:44:30;;;;;;;;;3.00;2.00;;;;;;;;4990563;27;45520;-74
2022/09/09 14:46:55;;;;;;;;;3.00;2.00;;;;;;;;4990802;27;45939;-74
2022/09/09 14:49:21;;;;;;;;;2.00;2.00;;;;;;;;4996583;28;45350;-71
2022/09/09 14:51:46;;;;;;;;;3.00;2.00;;;;;;;;4982021;28;46009;-70
2022/09/09 14:54:11;;;;;;;;;1.00;1.00;;;;;;;;4980159;27;45386;-70